sensor_id;sensor_type;location;lat;lon;timestamp;pressure;altitude;pressure_sealevel;temperature;humidity
7376;BME280;3728;42.266;24.944;2023-04-04T00:01:30;98295.38;;;11.81;100.00
7376;BME280;3728;42.266;24.944;2023-04-04T00:03:57;98294.06;;;11.87;100.00
7376;BME280;3728;42.266;24.944;2023-04-04T00:06:25;98295.97;;;11.90;100.00
7376;BME280;3728;42.266;24.944;2023-04-04T00:08:53;98295.66;;;12.07;100.00
7376;BME280;3728;42.266;24.944;2023-04-04T00:11:21;98297.09;;;12.04;100.00
7376;BME280;3728;42.266;24.944;2023-04-04T00:13:48;98285.16;;;12.07;100.00
7376;BME280;3728;42.266;24.944;2023-04-04T00:16:16;98279.56;;;11.93;100.00
7376;BME280;3728;42.266;24.944;2023-04-04T00:18:43;98269.56;;;11.83;100.00
7376;BME280;3728;42.266;24.944;2023-04-04T00:21:11;98257.22;;;11.68;100.00
7376;BME280;3728;42.266;24.944;2023-04-04T00:23:38;98249.19;;;11.76;100.00
7376;BME280;3728;42.266;24.944;2023-04-04T00:26:06;98256.72;;;11.93;100.00
7376;BME280;3728;42.266;24.944;2023-04-04T00:28:34;98250.97;;;11.88;100.00
7376;BME280;3728;42.266;24.944;2023-04-04T00:31:02;98258.50;;;11.89;100.00
7376;BME280;3728;42.266;24.944;2023-04-04T00:33:30;98253.00;;;11.79;100.00
7376;BME280;3728;42.266;24.944;2023-04-04T00:35:57;98254.44;;;11.92;100.00
7376;BME280;3728;42.266;24.944;2023-04-04T00:38:25;98256.03;;;11.81;100.00
7376;BME280;3728;42.266;24.944;2023-04-04T00:40:55;98254.00;;;11.90;100.00
7376;BME280;3728;42.266;24.944;2023-04-04T00:43:24;98251.09;;;11.63;100.00
7376;BME280;3728;42.266;24.944;2023-04-04T00:45:52;98239.47;;;11.77;100.00
7376;BME280;3728;42.266;24.944;2023-04-04T00:48:20;98232.53;;;12.00;100.00
7376;BME280;3728;42.266;24.944;2023-04-04T00:50:49;98232.84;;;11.83;100.00
7376;BME280;3728;42.266;24.944;2023-04-04T00:53:18;98239.13;;;11.78;100.00
7376;BME280;3728;42.266;24.944;2023-04-04T00:55:45;98228.13;;;11.73;100.00
7376;BME280;3728;42.266;24.944;2023-04-04T00:58:13;98235.81;;;11.81;100.00
7376;BME280;3728;42.266;24.944;2023-04-04T01:00:41;98230.31;;;11.71;100.00
7376;BME280;3728;42.266;24.944;2023-04-04T01:03:09;98224.25;;;11.82;100.00
7376;BME280;3728;42.266;24.944;2023-04-04T01:05:39;98225.59;;;11.76;100.00
7376;BME280;3728;42.266;24.944;2023-04-04T01:08:07;98218.56;;;11.80;100.00
7376;BME280;3728;42.266;24.944;2023-04-04T01:10:35;98227.19;;;11.81;100.00
7376;BME280;3728;42.266;24.944;2023-04-04T01:13:04;98218.72;;;11.87;100.00
7376;BME280;3728;42.266;24.944;2023-04-04T01:15:32;98230.25;;;11.98;100.00
7376;BME280;3728;42.266;24.944;2023-04-04T01:18:01;98226.75;;;12.10;100.00
7376;BME280;3728;42.266;24.944;2023-04-04T01:20:32;98231.19;;;12.06;100.00
7376;BME280;3728;42.266;24.944;2023-04-04T01:23:07;98223.03;;;12.11;100.00
7376;BME280;3728;42.266;24.944;2023-04-04T01:25:36;98217.63;;;12.04;100.00
7376;BME280;3728;42.266;24.944;2023-04-04T01:28:08;98223.41;;;11.94;100.00
7376;BME280;3728;42.266;24.944;2023-04-04T01:30:38;98226.88;;;11.82;100.00
7376;BME280;3728;42.266;24.944;2023-04-04T01:33:15;98226.69;;;11.91;100.00
7376;BME280;3728;42.266;24.944;2023-04-04T01:38:40;98222.19;;;12.07;100.00
7376;BME280;3728;42.266;24.944;2023-04-04T01:41:31;98218.47;;;12.08;100.00
7376;BME280;3728;42.266;24.944;2023-04-04T01:44:02;98233.31;;;12.35;100.00
7376;BME280;3728;42.266;24.944;2023-04-04T01:46:30;98218.34;;;12.35;100.00
7376;BME280;3728;42.266;24.944;2023-04-04T01:48:58;98217.72;;;12.42;100.00
7376;BME280;3728;42.266;24.944;2023-04-04T01:51:29;98220.56;;;12.18;100.00
7376;BME280;3728;42.266;24.944;2023-04-04T01:53:58;98214.97;;;12.19;100.00
7376;BME280;3728;42.266;24.944;2023-04-04T01:56:26;98207.28;;;12.11;100.00
7376;BME280;3728;42.266;24.944;2023-04-04T01:58:53;98215.59;;;11.97;100.00
7376;BME280;3728;42.266;24.944;2023-04-04T02:01:21;98222.78;;;12.00;100.00
7376;BME280;3728;42.266;24.944;2023-04-04T02:03:50;98214.06;;;11.81;100.00
7376;BME280;3728;42.266;24.944;2023-04-04T02:06:18;98202.66;;;11.89;100.00
7376;BME280;3728;42.266;24.944;2023-04-04T02:08:46;98196.31;;;11.90;100.00
7376;BME280;3728;42.266;24.944;2023-04-04T02:11:14;98194.69;;;11.85;100.00
7376;BME280;3728;42.266;24.944;2023-04-04T02:13:41;98190.22;;;11.70;100.00
7376;BME280;3728;42.266;24.944;2023-04-04T02:16:13;98205.19;;;11.85;100.00
7376;BME280;3728;42.266;24.944;2023-04-04T02:18:41;98190.19;;;12.17;100.00
7376;BME280;3728;42.266;24.944;2023-04-04T02:21:09;98192.75;;;11.98;100.00
7376;BME280;3728;42.266;24.944;2023-04-04T02:23:36;98199.16;;;11.85;100.00
7376;BME280;3728;42.266;24.944;2023-04-04T02:26:04;98197.66;;;11.84;100.00
7376;BME280;3728;42.266;24.944;2023-04-04T02:28:32;98190.38;;;11.93;100.00
7376;BME280;3728;42.266;24.944;2023-04-04T02:31:01;98185.38;;;11.88;100.00
7376;BME280;3728;42.266;24.944;2023-04-04T02:33:29;98187.66;;;12.05;100.00
7376;BME280;3728;42.266;24.944;2023-04-04T02:36:00;98195.44;;;12.01;100.00
7376;BME280;3728;42.266;24.944;2023-04-04T02:38:28;98184.47;;;11.96;100.00
7376;BME280;3728;42.266;24.944;2023-04-04T02:40:57;98185.19;;;12.12;100.00
7376;BME280;3728;42.266;24.944;2023-04-04T02:43:25;98185.88;;;12.09;100.00
7376;BME280;3728;42.266;24.944;2023-04-04T02:45:52;98187.91;;;12.00;100.00
7376;BME280;3728;42.266;24.944;2023-04-04T02:48:24;98184.78;;;11.94;100.00
7376;BME280;3728;42.266;24.944;2023-04-04T02:50:55;98182.94;;;11.95;100.00
7376;BME280;3728;42.266;24.944;2023-04-04T02:53:22;98185.56;;;11.79;100.00
7376;BME280;3728;42.266;24.944;2023-04-04T02:55:53;98186.41;;;11.83;100.00
7376;BME280;3728;42.266;24.944;2023-04-04T02:58:20;98183.44;;;11.85;100.00
7376;BME280;3728;42.266;24.944;2023-04-04T03:00:54;98183.88;;;11.87;100.00
7376;BME280;3728;42.266;24.944;2023-04-04T03:03:27;98188.09;;;11.91;100.00
7376;BME280;3728;42.266;24.944;2023-04-04T03:05:55;98185.91;;;11.78;100.00
7376;BME280;3728;42.266;24.944;2023-04-04T03:08:23;98187.19;;;11.84;100.00
7376;BME280;3728;42.266;24.944;2023-04-04T03:10:58;98180.03;;;12.00;100.00
7376;BME280;3728;42.266;24.944;2023-04-04T03:13:26;98183.34;;;11.97;100.00
7376;BME280;3728;42.266;24.944;2023-04-04T03:16:01;98179.22;;;11.80;100.00
7376;BME280;3728;42.266;24.944;2023-04-04T03:18:46;98184.31;;;11.89;100.00
7376;BME280;3728;42.266;24.944;2023-04-04T03:21:19;98175.09;;;11.79;100.00
7376;BME280;3728;42.266;24.944;2023-04-04T03:23:46;98170.75;;;11.71;100.00
7376;BME280;3728;42.266;24.944;2023-04-04T03:26:14;98183.94;;;11.90;100.00
7376;BME280;3728;42.266;24.944;2023-04-04T03:28:41;98176.50;;;11.92;100.00
7376;BME280;3728;42.266;24.944;2023-04-04T03:31:11;98176.59;;;11.80;100.00
7376;BME280;3728;42.266;24.944;2023-04-04T03:33:40;98174.63;;;11.61;100.00
7376;BME280;3728;42.266;24.944;2023-04-04T03:36:09;98168.66;;;11.77;100.00
7376;BME280;3728;42.266;24.944;2023-04-04T03:38:40;98174.31;;;11.63;100.00
7376;BME280;3728;42.266;24.944;2023-04-04T03:41:09;98182.41;;;11.58;100.00
7376;BME280;3728;42.266;24.944;2023-04-04T03:43:40;98185.13;;;11.61;100.00
7376;BME280;3728;42.266;24.944;2023-04-04T03:46:07;98186.38;;;11.52;100.00
7376;BME280;3728;42.266;24.944;2023-04-04T03:48:35;98189.53;;;11.57;100.00
7376;BME280;3728;42.266;24.944;2023-04-04T03:51:06;98185.47;;;11.60;100.00
7376;BME280;3728;42.266;24.944;2023-04-04T03:53:33;98191.13;;;11.78;100.00
7376;BME280;3728;42.266;24.944;2023-04-04T03:56:02;98183.28;;;11.78;100.00
7376;BME280;3728;42.266;24.944;2023-04-04T03:58:30;98184.81;;;11.79;100.00
7376;BME280;3728;42.266;24.944;2023-04-04T04:00:57;98183.72;;;11.80;100.00
7376;BME280;3728;42.266;24.944;2023-04-04T04:03:28;98196.06;;;11.79;100.00
7376;BME280;3728;42.266;24.944;2023-04-04T04:05:56;98197.97;;;11.66;100.00
7376;BME280;3728;42.266;24.944;2023-04-04T04:08:25;98207.06;;;11.69;100.00
7376;BME280;3728;42.266;24.944;2023-04-04T04:10:53;98206.59;;;11.67;100.00
7376;BME280;3728;42.266;24.944;2023-04-04T04:13:21;98206.03;;;11.74;100.00
7376;BME280;3728;42.266;24.944;2023-04-04T04:15:49;98211.38;;;11.77;100.00
7376;BME280;3728;42.266;24.944;2023-04-04T04:18:20;98214.91;;;11.85;100.00
7376;BME280;3728;42.266;24.944;2023-04-04T04:20:49;98201.63;;;11.78;100.00
7376;BME280;3728;42.266;24.944;2023-04-04T04:23:17;98204.53;;;11.88;100.00
7376;BME280;3728;42.266;24.944;2023-04-04T04:25:49;98204.53;;;11.88;100.00
7376;BME280;3728;42.266;24.944;2023-04-04T04:28:19;98210.09;;;12.02;100.00
7376;BME280;3728;42.266;24.944;2023-04-04T04:30:47;98211.69;;;12.07;100.00
7376;BME280;3728;42.266;24.944;2023-04-04T04:33:18;98212.31;;;12.00;100.00
7376;BME280;3728;42.266;24.944;2023-04-04T04:36:03;98209.00;;;11.88;100.00
7376;BME280;3728;42.266;24.944;2023-04-04T04:38:42;98214.66;;;12.05;100.00
7376;BME280;3728;42.266;24.944;2023-04-04T04:41:11;98213.81;;;12.01;100.00
7376;BME280;3728;42.266;24.944;2023-04-04T04:43:43;98208.19;;;12.18;100.00
7376;BME280;3728;42.266;24.944;2023-04-04T04:46:10;98206.44;;;12.07;100.00
7376;BME280;3728;42.266;24.944;2023-04-04T04:48:38;98210.56;;;12.23;100.00
7376;BME280;3728;42.266;24.944;2023-04-04T04:51:07;98212.44;;;12.23;100.00
7376;BME280;3728;42.266;24.944;2023-04-04T04:53:41;98209.44;;;12.40;100.00
7376;BME280;3728;42.266;24.944;2023-04-04T04:56:09;98211.41;;;12.27;100.00
7376;BME280;3728;42.266;24.944;2023-04-04T04:58:40;98220.34;;;12.42;100.00
7376;BME280;3728;42.266;24.944;2023-04-04T05:01:09;98214.56;;;12.52;100.00
7376;BME280;3728;42.266;24.944;2023-04-04T05:03:38;98219.66;;;12.45;100.00
7376;BME280;3728;42.266;24.944;2023-04-04T05:06:10;98213.22;;;12.43;100.00
7376;BME280;3728;42.266;24.944;2023-04-04T05:08:38;98216.81;;;12.34;100.00
7376;BME280;3728;42.266;24.944;2023-04-04T05:11:41;98212.31;;;12.35;100.00
7376;BME280;3728;42.266;24.944;2023-04-04T05:14:10;98213.81;;;12.52;100.00
7376;BME280;3728;42.266;24.944;2023-04-04T05:16:46;98215.81;;;12.58;100.00
7376;BME280;3728;42.266;24.944;2023-04-04T05:19:15;98215.78;;;12.93;100.00
7376;BME280;3728;42.266;24.944;2023-04-04T05:21:47;98214.03;;;13.00;100.00
7376;BME280;3728;42.266;24.944;2023-04-04T05:24:26;98217.31;;;13.13;100.00
7376;BME280;3728;42.266;24.944;2023-04-04T05:26:58;98222.16;;;13.11;100.00
7376;BME280;3728;42.266;24.944;2023-04-04T05:29:32;98225.81;;;13.07;100.00
7376;BME280;3728;42.266;24.944;2023-04-04T05:32:01;98225.38;;;13.04;100.00
7376;BME280;3728;42.266;24.944;2023-04-04T05:34:29;98225.72;;;12.84;100.00
7376;BME280;3728;42.266;24.944;2023-04-04T05:36:58;98230.50;;;12.97;100.00
7376;BME280;3728;42.266;24.944;2023-04-04T05:39:25;98221.50;;;12.98;100.00
7376;BME280;3728;42.266;24.944;2023-04-04T05:42:04;98224.66;;;12.88;100.00
7376;BME280;3728;42.266;24.944;2023-04-04T05:44:36;98216.38;;;12.86;100.00
7376;BME280;3728;42.266;24.944;2023-04-04T05:47:05;98226.13;;;12.86;100.00
7376;BME280;3728;42.266;24.944;2023-04-04T05:49:34;98224.38;;;12.74;100.00
7376;BME280;3728;42.266;24.944;2023-04-04T05:52:02;98224.41;;;12.93;100.00
7376;BME280;3728;42.266;24.944;2023-04-04T05:54:30;98228.91;;;12.93;100.00
7376;BME280;3728;42.266;24.944;2023-04-04T05:57:01;98236.94;;;13.00;100.00
7376;BME280;3728;42.266;24.944;2023-04-04T05:59:43;98242.50;;;12.98;100.00
7376;BME280;3728;42.266;24.944;2023-04-04T06:02:14;98241.00;;;13.17;100.00
7376;BME280;3728;42.266;24.944;2023-04-04T06:04:48;98247.66;;;13.11;100.00
7376;BME280;3728;42.266;24.944;2023-04-04T06:07:22;98243.44;;;13.06;100.00
7376;BME280;3728;42.266;24.944;2023-04-04T06:09:49;98242.34;;;13.07;100.00
7376;BME280;3728;42.266;24.944;2023-04-04T06:12:20;98250.44;;;13.18;100.00
7376;BME280;3728;42.266;24.944;2023-04-04T06:14:48;98255.91;;;13.09;100.00
7376;BME280;3728;42.266;24.944;2023-04-04T06:17:19;98254.22;;;13.20;100.00
7376;BME280;3728;42.266;24.944;2023-04-04T06:19:47;98248.16;;;13.35;100.00
7376;BME280;3728;42.266;24.944;2023-04-04T06:22:15;98255.00;;;13.21;100.00
7376;BME280;3728;42.266;24.944;2023-04-04T06:24:47;98254.16;;;13.17;100.00
7376;BME280;3728;42.266;24.944;2023-04-04T06:27:16;98257.06;;;13.31;100.00
7376;BME280;3728;42.266;24.944;2023-04-04T06:29:45;98258.88;;;13.08;100.00
7376;BME280;3728;42.266;24.944;2023-04-04T06:32:16;98254.09;;;13.13;100.00
7376;BME280;3728;42.266;24.944;2023-04-04T06:35:08;98262.66;;;13.10;100.00
7376;BME280;3728;42.266;24.944;2023-04-04T06:37:41;98274.91;;;13.41;100.00
7376;BME280;3728;42.266;24.944;2023-04-04T06:40:14;98271.31;;;13.30;100.00
7376;BME280;3728;42.266;24.944;2023-04-04T06:42:50;98269.78;;;13.29;100.00
7376;BME280;3728;42.266;24.944;2023-04-04T06:45:25;98267.78;;;13.41;100.00
7376;BME280;3728;42.266;24.944;2023-04-04T06:47:55;98270.81;;;13.24;100.00
7376;BME280;3728;42.266;24.944;2023-04-04T06:50:22;98268.69;;;13.30;100.00
7376;BME280;3728;42.266;24.944;2023-04-04T06:52:50;98259.34;;;13.32;100.00
7376;BME280;3728;42.266;24.944;2023-04-04T06:55:18;98260.50;;;13.54;100.00
7376;BME280;3728;42.266;24.944;2023-04-04T06:57:46;98265.63;;;13.47;100.00
7376;BME280;3728;42.266;24.944;2023-04-04T07:00:14;98260.66;;;13.23;100.00
7376;BME280;3728;42.266;24.944;2023-04-04T07:02:43;98257.91;;;13.35;100.00
7376;BME280;3728;42.266;24.944;2023-04-04T07:05:11;98260.94;;;13.37;100.00
7376;BME280;3728;42.266;24.944;2023-04-04T07:07:40;98256.91;;;13.43;100.00
7376;BME280;3728;42.266;24.944;2023-04-04T07:10:08;98252.59;;;13.54;100.00
7376;BME280;3728;42.266;24.944;2023-04-04T07:12:36;98256.06;;;13.58;100.00
7376;BME280;3728;42.266;24.944;2023-04-04T07:15:03;98252.25;;;13.55;100.00
7376;BME280;3728;42.266;24.944;2023-04-04T07:17:36;98258.97;;;13.53;100.00
7376;BME280;3728;42.266;24.944;2023-04-04T07:20:05;98259.91;;;13.64;100.00
7376;BME280;3728;42.266;24.944;2023-04-04T07:22:37;98265.47;;;13.82;100.00
7376;BME280;3728;42.266;24.944;2023-04-04T07:25:07;98259.41;;;13.78;100.00
7376;BME280;3728;42.266;24.944;2023-04-04T07:27:35;98275.34;;;13.88;100.00
7376;BME280;3728;42.266;24.944;2023-04-04T07:30:04;98265.63;;;13.92;100.00
7376;BME280;3728;42.266;24.944;2023-04-04T07:32:32;98280.19;;;14.09;100.00
7376;BME280;3728;42.266;24.944;2023-04-04T07:34:59;98274.66;;;13.91;100.00
7376;BME280;3728;42.266;24.944;2023-04-04T07:37:27;98278.69;;;14.30;100.00
7376;BME280;3728;42.266;24.944;2023-04-04T07:39:55;98272.81;;;14.18;100.00
7376;BME280;3728;42.266;24.944;2023-04-04T07:42:22;98273.47;;;14.11;100.00
7376;BME280;3728;42.266;24.944;2023-04-04T07:44:51;98281.19;;;14.23;100.00
7376;BME280;3728;42.266;24.944;2023-04-04T07:47:18;98286.66;;;14.34;100.00
7376;BME280;3728;42.266;24.944;2023-04-04T07:49:47;98273.06;;;14.32;100.00
7376;BME280;3728;42.266;24.944;2023-04-04T07:52:14;98282.31;;;14.49;100.00
7376;BME280;3728;42.266;24.944;2023-04-04T07:54:41;98281.47;;;14.67;100.00
7376;BME280;3728;42.266;24.944;2023-04-04T07:57:10;98282.63;;;14.70;100.00
7376;BME280;3728;42.266;24.944;2023-04-04T07:59:37;98287.75;;;14.59;100.00
7376;BME280;3728;42.266;24.944;2023-04-04T08:02:05;98276.75;;;14.54;100.00
7376;BME280;3728;42.266;24.944;2023-04-04T08:04:32;98284.53;;;14.69;100.00
7376;BME280;3728;42.266;24.944;2023-04-04T08:07:00;98281.16;;;14.72;100.00
7376;BME280;3728;42.266;24.944;2023-04-04T08:09:27;98274.97;;;14.87;98.94
7376;BME280;3728;42.266;24.944;2023-04-04T08:11:59;98272.91;;;14.74;100.00
7376;BME280;3728;42.266;24.944;2023-04-04T08:14:27;98264.78;;;14.86;100.00
7376;BME280;3728;42.266;24.944;2023-04-04T08:16:55;98272.81;;;14.96;100.00
7376;BME280;3728;42.266;24.944;2023-04-04T08:19:23;98275.94;;;15.05;100.00
7376;BME280;3728;42.266;24.944;2023-04-04T08:21:50;98276.63;;;15.32;99.38
7376;BME280;3728;42.266;24.944;2023-04-04T08:24:18;98272.44;;;15.28;99.81
7376;BME280;3728;42.266;24.944;2023-04-04T08:26:47;98291.31;;;15.33;100.00
7376;BME280;3728;42.266;24.944;2023-04-04T08:29:30;98293.94;;;15.33;100.00
7376;BME280;3728;42.266;24.944;2023-04-04T08:32:01;98284.47;;;15.58;99.58
7376;BME280;3728;42.266;24.944;2023-04-04T08:34:29;98290.75;;;15.47;98.61
7376;BME280;3728;42.266;24.944;2023-04-04T08:36:57;98294.88;;;15.44;99.59
7376;BME280;3728;42.266;24.944;2023-04-04T08:39:25;98307.53;;;15.65;97.18
7376;BME280;3728;42.266;24.944;2023-04-04T08:42:01;98295.03;;;15.58;96.42
7376;BME280;3728;42.266;24.944;2023-04-04T08:44:32;98298.13;;;15.67;96.89
7376;BME280;3728;42.266;24.944;2023-04-04T08:47:04;98308.63;;;15.64;93.31
7376;BME280;3728;42.266;24.944;2023-04-04T08:49:37;98306.44;;;15.69;91.64
7376;BME280;3728;42.266;24.944;2023-04-04T08:52:11;98308.22;;;15.58;93.92
7376;BME280;3728;42.266;24.944;2023-04-04T08:54:39;98308.94;;;15.55;96.04
7376;BME280;3728;42.266;24.944;2023-04-04T08:57:06;98313.56;;;15.65;93.27
7376;BME280;3728;42.266;24.944;2023-04-04T08:59:34;98302.47;;;15.49;94.00
7376;BME280;3728;42.266;24.944;2023-04-04T09:04:38;98300.44;;;15.72;93.48
7376;BME280;3728;42.266;24.944;2023-04-04T09:07:08;98308.41;;;15.80;92.96
7376;BME280;3728;42.266;24.944;2023-04-04T09:09:36;98303.47;;;15.74;94.16
7376;BME280;3728;42.266;24.944;2023-04-04T09:12:05;98312.16;;;15.75;92.61
7376;BME280;3728;42.266;24.944;2023-04-04T09:14:35;98313.25;;;15.70;91.30
7376;BME280;3728;42.266;24.944;2023-04-04T09:17:05;98311.38;;;15.74;95.69
7376;BME280;3728;42.266;24.944;2023-04-04T09:19:36;98311.31;;;15.67;95.80
7376;BME280;3728;42.266;24.944;2023-04-04T09:22:08;98315.88;;;15.70;93.65
7376;BME280;3728;42.266;24.944;2023-04-04T09:24:42;98311.53;;;15.89;95.07
7376;BME280;3728;42.266;24.944;2023-04-04T09:27:11;98314.69;;;16.05;93.05
7376;BME280;3728;42.266;24.944;2023-04-04T09:29:39;98324.75;;;16.36;93.33
7376;BME280;3728;42.266;24.944;2023-04-04T09:32:14;98324.53;;;16.55;88.75
7376;BME280;3728;42.266;24.944;2023-04-04T09:34:42;98319.66;;;16.57;90.27
7376;BME280;3728;42.266;24.944;2023-04-04T09:37:12;98322.97;;;16.51;90.03
7376;BME280;3728;42.266;24.944;2023-04-04T09:39:42;98323.91;;;16.76;94.54
7376;BME280;3728;42.266;24.944;2023-04-04T09:42:10;98322.09;;;16.90;87.71
7376;BME280;3728;42.266;24.944;2023-04-04T09:44:38;98321.03;;;17.02;86.50
7376;BME280;3728;42.266;24.944;2023-04-04T09:47:24;98323.34;;;17.10;88.30
7376;BME280;3728;42.266;24.944;2023-04-04T09:49:59;98325.69;;;17.30;86.86
7376;BME280;3728;42.266;24.944;2023-04-04T09:52:31;98324.53;;;17.27;88.03
7376;BME280;3728;42.266;24.944;2023-04-04T09:55:03;98330.94;;;17.23;89.28
7376;BME280;3728;42.266;24.944;2023-04-04T09:57:34;98326.53;;;17.55;88.49
7376;BME280;3728;42.266;24.944;2023-04-04T10:00:05;98331.13;;;17.61;85.61
7376;BME280;3728;42.266;24.944;2023-04-04T10:02:45;98329.22;;;17.58;86.29
7376;BME280;3728;42.266;24.944;2023-04-04T10:05:15;98328.72;;;17.39;85.46
7376;BME280;3728;42.266;24.944;2023-04-04T10:07:43;98326.59;;;17.72;86.23
7376;BME280;3728;42.266;24.944;2023-04-04T10:10:13;98329.28;;;17.97;85.65
7376;BME280;3728;42.266;24.944;2023-04-04T10:12:44;98324.75;;;18.22;85.36
7376;BME280;3728;42.266;24.944;2023-04-04T10:15:14;98319.84;;;18.31;80.09
7376;BME280;3728;42.266;24.944;2023-04-04T10:17:43;98317.19;;;18.14;82.10
7376;BME280;3728;42.266;24.944;2023-04-04T10:20:13;98318.31;;;18.02;81.61
7376;BME280;3728;42.266;24.944;2023-04-04T10:22:42;98316.44;;;18.06;82.87
7376;BME280;3728;42.266;24.944;2023-04-04T10:25:10;98311.88;;;18.35;80.17
7376;BME280;3728;42.266;24.944;2023-04-04T10:27:38;98316.03;;;18.71;79.83
7376;BME280;3728;42.266;24.944;2023-04-04T10:30:06;98309.56;;;18.83;74.31
7376;BME280;3728;42.266;24.944;2023-04-04T10:35:11;98306.19;;;18.65;74.40
7376;BME280;3728;42.266;24.944;2023-04-04T10:37:53;98303.19;;;18.34;76.56
7376;BME280;3728;42.266;24.944;2023-04-04T10:40:30;98300.13;;;18.32;80.53
7376;BME280;3728;42.266;24.944;2023-04-04T10:43:03;98298.94;;;18.83;76.11
7376;BME280;3728;42.266;24.944;2023-04-04T10:45:35;98295.84;;;19.02;72.95
7376;BME280;3728;42.266;24.944;2023-04-04T10:48:05;98296.97;;;19.04;76.98
7376;BME280;3728;42.266;24.944;2023-04-04T10:50:37;98304.22;;;18.93;76.45
7376;BME280;3728;42.266;24.944;2023-04-04T10:53:05;98313.56;;;19.33;74.53
7376;BME280;3728;42.266;24.944;2023-04-04T10:55:34;98301.69;;;19.55;70.83
7376;BME280;3728;42.266;24.944;2023-04-04T10:58:04;98296.75;;;19.57;74.99
7376;BME280;3728;42.266;24.944;2023-04-04T11:00:47;98290.56;;;19.74;71.76
7376;BME280;3728;42.266;24.944;2023-04-04T11:03:20;98292.31;;;19.99;69.63
7376;BME280;3728;42.266;24.944;2023-04-04T11:05:48;98294.34;;;19.81;68.65
7376;BME280;3728;42.266;24.944;2023-04-04T11:08:27;98283.13;;;19.52;66.05
7376;BME280;3728;42.266;24.944;2023-04-04T11:10:55;98283.22;;;19.27;67.91
7376;BME280;3728;42.266;24.944;2023-04-04T11:13:33;98285.56;;;19.18;73.97
7376;BME280;3728;42.266;24.944;2023-04-04T11:21:12;98281.91;;;18.84;75.16
7376;BME280;3728;42.266;24.944;2023-04-04T11:28:57;98293.31;;;18.28;77.06
7376;BME280;3728;42.266;24.944;2023-04-04T11:31:27;98286.09;;;18.71;73.55
7376;BME280;3728;42.266;24.944;2023-04-04T11:34:31;98284.19;;;18.68;75.29
7376;BME280;3728;42.266;24.944;2023-04-04T11:37:14;98287.63;;;18.65;75.51
7376;BME280;3728;42.266;24.944;2023-04-04T11:39:47;98277.75;;;18.76;76.32
7376;BME280;3728;42.266;24.944;2023-04-04T11:42:32;98265.13;;;19.08;74.53
7376;BME280;3728;42.266;24.944;2023-04-04T11:45:04;98264.97;;;19.47;75.95
7376;BME280;3728;42.266;24.944;2023-04-04T11:47:34;98269.72;;;20.24;73.67
7376;BME280;3728;42.266;24.944;2023-04-04T11:50:08;98269.78;;;20.92;71.90
7376;BME280;3728;42.266;24.944;2023-04-04T11:52:36;98277.72;;;21.56;60.05
7376;BME280;3728;42.266;24.944;2023-04-04T11:55:17;98273.00;;;21.67;56.64
7376;BME280;3728;42.266;24.944;2023-04-04T11:57:46;98273.88;;;21.87;55.90
7376;BME280;3728;42.266;24.944;2023-04-04T12:00:31;98272.41;;;21.83;57.42
7376;BME280;3728;42.266;24.944;2023-04-04T12:03:06;98269.75;;;21.56;57.57
7376;BME280;3728;42.266;24.944;2023-04-04T12:05:38;98265.94;;;21.57;57.89
7376;BME280;3728;42.266;24.944;2023-04-04T12:08:10;98272.91;;;21.47;56.34
7376;BME280;3728;42.266;24.944;2023-04-04T12:10:39;98255.69;;;20.95;57.71
7376;BME280;3728;42.266;24.944;2023-04-04T12:13:08;98262.22;;;21.21;56.94
7376;BME280;3728;42.266;24.944;2023-04-04T12:15:36;98262.00;;;21.08;58.17
7376;BME280;3728;42.266;24.944;2023-04-04T12:18:07;98256.78;;;20.97;55.44
7376;BME280;3728;42.266;24.944;2023-04-04T12:20:37;98257.63;;;20.57;56.50
7376;BME280;3728;42.266;24.944;2023-04-04T12:23:07;98254.28;;;20.09;57.21
7376;BME280;3728;42.266;24.944;2023-04-04T12:25:36;98251.06;;;19.80;60.88
7376;BME280;3728;42.266;24.944;2023-04-04T12:28:06;98250.97;;;19.43;61.87
7376;BME280;3728;42.266;24.944;2023-04-04T12:30:34;98244.91;;;19.32;65.66
7376;BME280;3728;42.266;24.944;2023-04-04T12:33:02;98246.91;;;19.17;67.78
7376;BME280;3728;42.266;24.944;2023-04-04T12:35:31;98253.28;;;19.27;67.14
7376;BME280;3728;42.266;24.944;2023-04-04T12:38:03;98246.53;;;19.08;67.10
7376;BME280;3728;42.266;24.944;2023-04-04T12:40:37;98250.59;;;19.30;65.77
7376;BME280;3728;42.266;24.944;2023-04-04T12:43:07;98254.13;;;19.09;66.80
7376;BME280;3728;42.266;24.944;2023-04-04T12:45:38;98248.72;;;19.31;64.57
7376;BME280;3728;42.266;24.944;2023-04-04T12:48:14;98250.16;;;19.46;65.27
7376;BME280;3728;42.266;24.944;2023-04-04T12:50:57;98249.78;;;19.47;68.84
7376;BME280;3728;42.266;24.944;2023-04-04T12:53:27;98242.31;;;19.21;66.38
7376;BME280;3728;42.266;24.944;2023-04-04T12:56:02;98242.19;;;18.63;69.37
7376;BME280;3728;42.266;24.944;2023-04-04T12:58:30;98239.88;;;18.68;70.93
7376;BME280;3728;42.266;24.944;2023-04-04T13:01:02;98243.25;;;18.86;68.58
7376;BME280;3728;42.266;24.944;2023-04-04T13:03:32;98244.06;;;18.44;72.32
7376;BME280;3728;42.266;24.944;2023-04-04T13:06:00;98242.97;;;18.35;71.81
7376;BME280;3728;42.266;24.944;2023-04-04T13:08:32;98254.34;;;18.14;74.25
7376;BME280;3728;42.266;24.944;2023-04-04T13:11:01;98259.25;;;17.88;74.01
7376;BME280;3728;42.266;24.944;2023-04-04T13:13:38;98262.28;;;18.00;75.66
7376;BME280;3728;42.266;24.944;2023-04-04T13:16:10;98261.19;;;17.94;74.22
7376;BME280;3728;42.266;24.944;2023-04-04T13:18:58;98270.63;;;17.95;72.43
7376;BME280;3728;42.266;24.944;2023-04-04T13:21:26;98263.81;;;17.80;77.35
7376;BME280;3728;42.266;24.944;2023-04-04T13:23:58;98271.78;;;17.94;78.05
7376;BME280;3728;42.266;24.944;2023-04-04T13:26:30;98271.41;;;17.85;75.27
7376;BME280;3728;42.266;24.944;2023-04-04T13:28:59;98280.03;;;17.64;81.32
7376;BME280;3728;42.266;24.944;2023-04-04T13:31:29;98285.72;;;17.66;79.29
7376;BME280;3728;42.266;24.944;2023-04-04T13:33:58;98284.56;;;17.53;80.09
7376;BME280;3728;42.266;24.944;2023-04-04T13:36:26;98284.00;;;17.05;83.35
7376;BME280;3728;42.266;24.944;2023-04-04T13:38:54;98282.44;;;16.90;90.13
7376;BME280;3728;42.266;24.944;2023-04-04T13:41:21;98279.69;;;16.69;93.54